Bleiswijk, Netherlands
Current Conditions -  °F | °C
As of 1:55 AM on Monday 24 Nov 2014 (Local Time) from EHRD Reporting Station
Light Rain Light Rain  
Wind Chill: 46°   Ceiling: 1500
Heat Index: 48°   Visibility: 6mi
Dew Point: 46°   Wind: 5mph
Humidity: 93%   Direction: 300°WNW
Pressure: 30.06"   Gusts: NA
Location:  52.01°N, 4.53°E
Report Text: EHRD 240055Z AUTO 30004KT 270V340 9999 -RADZ BKN015CB SCT016BKN020 OVC024 09/08 Q1018 BECMG SCT015
Loading
Personal Weather Stations






























Interactive Weather Map New forecast layout! Learn more

10-Day Weather Forecast

Advertisements
Track Severe Weather on mobile